sensor_id;sensor_type;location;lat;lon;timestamp;pressure;altitude;pressure_sealevel;temperature;humidity
58343;BME280;44150;42.602;23.398;2024-01-30T00:01:41;95526.25;;;37.87;59.74
58343;BME280;44150;42.602;23.398;2024-01-30T00:04:07;95526.00;;;37.83;60.29
58343;BME280;44150;42.602;23.398;2024-01-30T00:06:32;95519.78;;;37.83;59.75
58343;BME280;44150;42.602;23.398;2024-01-30T00:08:58;95521.69;;;37.82;59.54
58343;BME280;44150;42.602;23.398;2024-01-30T00:11:23;95521.41;;;37.84;59.46
58343;BME280;44150;42.602;23.398;2024-01-30T00:13:54;95526.00;;;37.83;59.40
58343;BME280;44150;42.602;23.398;2024-01-30T00:16:22;95524.63;;;37.86;60.08
58343;BME280;44150;42.602;23.398;2024-01-30T00:18:49;95527.59;;;37.84;58.81
58343;BME280;44150;42.602;23.398;2024-01-30T00:21:14;95527.09;;;37.77;58.87
58343;BME280;44150;42.602;23.398;2024-01-30T00:23:40;95522.50;;;37.78;59.45
58343;BME280;44150;42.602;23.398;2024-01-30T00:26:05;95525.19;;;37.78;60.33
58343;BME280;44150;42.602;23.398;2024-01-30T00:28:31;95531.94;;;37.80;60.42
58343;BME280;44150;42.602;23.398;2024-01-30T00:30:56;95541.41;;;37.83;59.67
58343;BME280;44150;42.602;23.398;2024-01-30T00:33:21;95529.78;;;37.82;60.03
58343;BME280;44150;42.602;23.398;2024-01-30T00:35:47;95527.09;;;37.82;59.53
58343;BME280;44150;42.602;23.398;2024-01-30T00:38:12;95532.50;;;37.82;59.56
58343;BME280;44150;42.602;23.398;2024-01-30T00:40:37;95534.38;;;37.82;59.75
58343;BME280;44150;42.602;23.398;2024-01-30T00:43:03;95536.81;;;37.83;59.40
58343;BME280;44150;42.602;23.398;2024-01-30T00:45:28;95530.59;;;37.83;59.25
58343;BME280;44150;42.602;23.398;2024-01-30T00:47:54;95533.00;;;37.84;59.11
58343;BME280;44150;42.602;23.398;2024-01-30T00:50:19;95530.31;;;37.84;59.47
58343;BME280;44150;42.602;23.398;2024-01-30T00:52:44;95532.22;;;37.84;59.46
58343;BME280;44150;42.602;23.398;2024-01-30T00:55:10;95530.31;;;37.84;60.02
58343;BME280;44150;42.602;23.398;2024-01-30T00:57:36;95527.09;;;37.82;59.50
58343;BME280;44150;42.602;23.398;2024-01-30T01:00:02;95521.69;;;37.82;59.49
58343;BME280;44150;42.602;23.398;2024-01-30T01:02:28;95529.53;;;37.84;60.00
58343;BME280;44150;42.602;23.398;2024-01-30T01:04:53;95520.88;;;37.82;59.85
58343;BME280;44150;42.602;23.398;2024-01-30T01:07:19;95526.00;;;37.83;59.95
58343;BME280;44150;42.602;23.398;2024-01-30T01:09:44;95528.72;;;37.83;59.71
58343;BME280;44150;42.602;23.398;2024-01-30T01:12:09;95527.91;;;37.83;60.14
58343;BME280;44150;42.602;23.398;2024-01-30T01:14:35;95522.19;;;37.84;59.91
58343;BME280;44150;42.602;23.398;2024-01-30T01:17:01;95519.78;;;37.88;58.93
58343;BME280;44150;42.602;23.398;2024-01-30T01:19:27;95529.53;;;37.84;59.39
58343;BME280;44150;42.602;23.398;2024-01-30T01:21:52;95523.31;;;37.78;59.45
58343;BME280;44150;42.602;23.398;2024-01-30T01:24:18;95521.44;;;37.79;59.52
58343;BME280;44150;42.602;23.398;2024-01-30T01:26:43;95530.59;;;37.78;60.19
58343;BME280;44150;42.602;23.398;2024-01-30T01:29:09;95534.94;;;37.79;59.49
58343;BME280;44150;42.602;23.398;2024-01-30T01:31:37;95530.88;;;37.81;59.40
58343;BME280;44150;42.602;23.398;2024-01-30T01:34:11;95523.31;;;37.78;58.86
58343;BME280;44150;42.602;23.398;2024-01-30T01:36:37;95532.75;;;37.81;58.93
58343;BME280;44150;42.602;23.398;2024-01-30T01:39:02;95534.38;;;37.82;59.05
58343;BME280;44150;42.602;23.398;2024-01-30T01:41:34;95530.59;;;37.83;58.79
58343;BME280;44150;42.602;23.398;2024-01-30T01:44:00;95526.53;;;37.80;59.34
58343;BME280;44150;42.602;23.398;2024-01-30T01:46:30;95533.31;;;37.83;58.91
58343;BME280;44150;42.602;23.398;2024-01-30T01:48:58;95535.72;;;37.84;59.40
58343;BME280;44150;42.602;23.398;2024-01-30T01:51:24;95533.00;;;37.84;59.48
58343;BME280;44150;42.602;23.398;2024-01-30T01:53:53;95528.97;;;37.82;59.18
58343;BME280;44150;42.602;23.398;2024-01-30T01:56:18;95532.50;;;37.82;59.32
58343;BME280;44150;42.602;23.398;2024-01-30T01:58:45;95529.53;;;37.84;59.58
58343;BME280;44150;42.602;23.398;2024-01-30T02:01:12;95534.13;;;37.83;58.76
58343;BME280;44150;42.602;23.398;2024-01-30T02:03:39;95535.72;;;37.84;58.74
58343;BME280;44150;42.602;23.398;2024-01-30T02:06:05;95534.13;;;37.83;58.27
58343;BME280;44150;42.602;23.398;2024-01-30T02:08:30;95538.41;;;37.84;58.51
58343;BME280;44150;42.602;23.398;2024-01-30T02:10:56;95540.34;;;37.84;59.08
58343;BME280;44150;42.602;23.398;2024-01-30T02:13:21;95542.22;;;37.83;59.16
58343;BME280;44150;42.602;23.398;2024-01-30T02:15:51;95539.53;;;37.83;58.87
58343;BME280;44150;42.602;23.398;2024-01-30T02:18:16;95537.34;;;37.85;59.03
58343;BME280;44150;42.602;23.398;2024-01-30T02:20:43;95536.53;;;37.85;59.69
58343;BME280;44150;42.602;23.398;2024-01-30T02:23:09;95543.84;;;37.79;60.20
58343;BME280;44150;42.602;23.398;2024-01-30T02:25:42;95530.34;;;37.79;59.96
58343;BME280;44150;42.602;23.398;2024-01-30T02:28:10;95532.22;;;37.79;59.65
58343;BME280;44150;42.602;23.398;2024-01-30T02:30:37;95533.31;;;37.78;59.92
58343;BME280;44150;42.602;23.398;2024-01-30T02:33:02;95538.44;;;37.79;59.53
58343;BME280;44150;42.602;23.398;2024-01-30T02:35:27;95535.47;;;37.81;59.27
58343;BME280;44150;42.602;23.398;2024-01-30T02:37:53;95530.59;;;37.83;59.63
58343;BME280;44150;42.602;23.398;2024-01-30T02:40:18;95532.50;;;37.82;59.43
58343;BME280;44150;42.602;23.398;2024-01-30T02:42:43;95527.91;;;37.83;59.15
58343;BME280;44150;42.602;23.398;2024-01-30T02:45:09;95528.97;;;37.82;58.99
58343;BME280;44150;42.602;23.398;2024-01-30T02:47:36;95536.00;;;37.83;59.26
58343;BME280;44150;42.602;23.398;2024-01-30T02:50:01;95538.41;;;37.84;58.48
58343;BME280;44150;42.602;23.398;2024-01-30T02:52:26;95540.34;;;37.84;58.55
58343;BME280;44150;42.602;23.398;2024-01-30T02:54:52;95538.72;;;37.83;58.61
58343;BME280;44150;42.602;23.398;2024-01-30T02:57:17;95533.00;;;37.84;59.11
58343;BME280;44150;42.602;23.398;2024-01-30T02:59:42;95530.59;;;37.83;58.53
58343;BME280;44150;42.602;23.398;2024-01-30T03:02:08;95530.59;;;37.83;58.33
58343;BME280;44150;42.602;23.398;2024-01-30T03:04:33;95530.59;;;37.83;58.45
58343;BME280;44150;42.602;23.398;2024-01-30T03:06:58;95526.28;;;37.82;58.90
58343;BME280;44150;42.602;23.398;2024-01-30T03:09:24;95527.09;;;37.82;58.49
58343;BME280;44150;42.602;23.398;2024-01-30T03:11:49;95535.19;;;37.82;59.05
58343;BME280;44150;42.602;23.398;2024-01-30T03:14:15;95522.50;;;37.83;59.07
58343;BME280;44150;42.602;23.398;2024-01-30T03:16:40;95531.41;;;37.83;58.92
58343;BME280;44150;42.602;23.398;2024-01-30T03:19:06;95532.75;;;37.86;58.80
58343;BME280;44150;42.602;23.398;2024-01-30T03:21:33;95529.53;;;37.84;58.26
58343;BME280;44150;42.602;23.398;2024-01-30T03:23:58;95521.44;;;37.79;58.89
58343;BME280;44150;42.602;23.398;2024-01-30T03:26:24;95520.59;;;37.78;58.84
58343;BME280;44150;42.602;23.398;2024-01-30T03:28:50;95519.81;;;37.78;59.50
58343;BME280;44150;42.602;23.398;2024-01-30T03:31:15;95522.22;;;37.79;59.37
58343;BME280;44150;42.602;23.398;2024-01-30T03:33:41;95524.13;;;37.79;58.45
58343;BME280;44150;42.602;23.398;2024-01-30T03:36:07;95522.75;;;37.81;58.48
58343;BME280;44150;42.602;23.398;2024-01-30T03:38:32;95520.06;;;37.81;59.05
58343;BME280;44150;42.602;23.398;2024-01-30T03:40:58;95526.00;;;37.83;58.62
58343;BME280;44150;42.602;23.398;2024-01-30T03:43:24;95532.50;;;37.82;58.33
58343;BME280;44150;42.602;23.398;2024-01-30T03:45:49;95524.91;;;37.84;59.08
58343;BME280;44150;42.602;23.398;2024-01-30T03:48:15;95516.28;;;37.82;59.28
58343;BME280;44150;42.602;23.398;2024-01-30T03:50:40;95513.56;;;37.82;58.66
58343;BME280;44150;42.602;23.398;2024-01-30T03:53:05;95517.09;;;37.83;58.58
58343;BME280;44150;42.602;23.398;2024-01-30T03:55:31;95509.78;;;37.83;59.02
58343;BME280;44150;42.602;23.398;2024-01-30T03:57:56;95513.56;;;37.82;58.68
58343;BME280;44150;42.602;23.398;2024-01-30T04:00:21;95511.94;;;37.81;57.91
58343;BME280;44150;42.602;23.398;2024-01-30T04:02:47;95511.38;;;37.84;58.29
58343;BME280;44150;42.602;23.398;2024-01-30T04:05:12;95515.72;;;37.85;59.01
58343;BME280;44150;42.602;23.398;2024-01-30T04:07:37;95517.09;;;37.83;58.96
58343;BME280;44150;42.602;23.398;2024-01-30T04:10:03;95510.88;;;37.82;58.68
58343;BME280;44150;42.602;23.398;2024-01-30T04:12:31;95509.50;;;37.85;58.89
58343;BME280;44150;42.602;23.398;2024-01-30T04:14:57;95508.69;;;37.84;58.66
58343;BME280;44150;42.602;23.398;2024-01-30T04:17:22;95506.84;;;37.80;58.96
58343;BME280;44150;42.602;23.398;2024-01-30T04:19:47;95513.56;;;37.87;58.25
58343;BME280;44150;42.602;23.398;2024-01-30T04:22:13;95510.88;;;37.82;58.64
58343;BME280;44150;42.602;23.398;2024-01-30T04:24:38;95513.56;;;37.77;58.38
58343;BME280;44150;42.602;23.398;2024-01-30T04:27:04;95514.94;;;37.75;58.77
58343;BME280;44150;42.602;23.398;2024-01-30T04:29:29;95508.44;;;37.76;58.46
58343;BME280;44150;42.602;23.398;2024-01-30T04:31:54;95522.50;;;37.78;57.63
58343;BME280;44150;42.602;23.398;2024-01-30T04:34:20;95522.22;;;37.79;57.41
58343;BME280;44150;42.602;23.398;2024-01-30T04:36:45;95526.81;;;37.79;57.94
58343;BME280;44150;42.602;23.398;2024-01-30T04:39:11;95519.25;;;37.81;57.99
58343;BME280;44150;42.602;23.398;2024-01-30T04:41:37;95527.34;;;37.81;58.39
58343;BME280;44150;42.602;23.398;2024-01-30T04:44:03;95525.47;;;37.81;57.98
58343;BME280;44150;42.602;23.398;2024-01-30T04:46:28;95524.66;;;37.81;57.90
58343;BME280;44150;42.602;23.398;2024-01-30T04:48:54;95525.47;;;37.81;58.03
58343;BME280;44150;42.602;23.398;2024-01-30T04:51:19;95525.47;;;37.81;57.71
58343;BME280;44150;42.602;23.398;2024-01-30T04:53:44;95524.13;;;37.84;58.80
58343;BME280;44150;42.602;23.398;2024-01-30T04:56:10;95529.78;;;37.82;58.47
58343;BME280;44150;42.602;23.398;2024-01-30T04:58:35;95530.88;;;37.81;57.54
58343;BME280;44150;42.602;23.398;2024-01-30T05:01:02;95539.53;;;37.83;58.55
58343;BME280;44150;42.602;23.398;2024-01-30T05:03:27;95532.22;;;37.84;58.48
58343;BME280;44150;42.602;23.398;2024-01-30T05:05:52;95533.31;;;37.83;59.11
58343;BME280;44150;42.602;23.398;2024-01-30T05:08:18;95534.94;;;37.84;60.46
58343;BME280;44150;42.602;23.398;2024-01-30T05:10:43;95533.88;;;37.80;61.47
58343;BME280;44150;42.602;23.398;2024-01-30T05:13:09;95537.91;;;37.82;61.69
58343;BME280;44150;42.602;23.398;2024-01-30T05:15:35;95541.69;;;37.81;62.66
58343;BME280;44150;42.602;23.398;2024-01-30T05:18:00;95544.13;;;37.83;62.47
58343;BME280;44150;42.602;23.398;2024-01-30T05:20:26;95543.81;;;37.84;62.66
58343;BME280;44150;42.602;23.398;2024-01-30T05:22:53;95541.69;;;37.81;63.70
58343;BME280;44150;42.602;23.398;2024-01-30T05:25:19;95537.91;;;37.77;63.67
58343;BME280;44150;42.602;23.398;2024-01-30T05:27:44;95557.38;;;37.74;63.40
58343;BME280;44150;42.602;23.398;2024-01-30T05:30:10;95549.78;;;37.76;63.34
58343;BME280;44150;42.602;23.398;2024-01-30T05:32:35;95551.97;;;37.79;63.85
58343;BME280;44150;42.602;23.398;2024-01-30T05:35:01;95560.59;;;37.81;63.77
58343;BME280;44150;42.602;23.398;2024-01-30T05:37:26;95561.66;;;37.80;64.11
58343;BME280;44150;42.602;23.398;2024-01-30T05:39:52;95563.59;;;37.80;63.35
58343;BME280;44150;42.602;23.398;2024-01-30T05:42:17;95558.72;;;37.82;63.95
58343;BME280;44150;42.602;23.398;2024-01-30T05:44:42;95563.56;;;37.85;64.09
58343;BME280;44150;42.602;23.398;2024-01-30T05:47:08;95564.91;;;37.82;64.25
58343;BME280;44150;42.602;23.398;2024-01-30T05:49:33;95570.31;;;37.82;63.79
58343;BME280;44150;42.602;23.398;2024-01-30T05:52:00;95561.97;;;37.84;64.25
58343;BME280;44150;42.602;23.398;2024-01-30T05:54:25;95558.44;;;37.83;63.93
58343;BME280;44150;42.602;23.398;2024-01-30T05:56:50;95558.72;;;37.82;64.30
58343;BME280;44150;42.602;23.398;2024-01-30T05:59:16;95559.25;;;37.84;64.80
58343;BME280;44150;42.602;23.398;2024-01-30T06:01:48;95565.75;;;37.83;64.62
58343;BME280;44150;42.602;23.398;2024-01-30T06:04:14;95558.44;;;37.83;64.46
58343;BME280;44150;42.602;23.398;2024-01-30T06:06:40;95563.28;;;37.81;64.97
58343;BME280;44150;42.602;23.398;2024-01-30T06:09:05;95560.34;;;37.83;65.06
58343;BME280;44150;42.602;23.398;2024-01-30T06:11:31;95554.09;;;37.82;64.60
58343;BME280;44150;42.602;23.398;2024-01-30T06:13:57;95557.63;;;37.83;65.04
58343;BME280;44150;42.602;23.398;2024-01-30T06:16:22;95561.16;;;37.83;65.28
58343;BME280;44150;42.602;23.398;2024-01-30T06:18:48;95564.66;;;37.84;65.45
58343;BME280;44150;42.602;23.398;2024-01-30T06:21:13;95563.03;;;37.88;64.98
58343;BME280;44150;42.602;23.398;2024-01-30T06:23:39;95570.59;;;37.86;65.02
58343;BME280;44150;42.602;23.398;2024-01-30T06:26:06;95558.72;;;37.77;65.77
58343;BME280;44150;42.602;23.398;2024-01-30T06:28:31;95571.97;;;37.78;65.71
58343;BME280;44150;42.602;23.398;2024-01-30T06:30:56;95564.41;;;37.75;65.67
58343;BME280;44150;42.602;23.398;2024-01-30T06:33:22;95564.13;;;37.77;65.01
58343;BME280;44150;42.602;23.398;2024-01-30T06:35:47;95571.97;;;37.78;65.39
58343;BME280;44150;42.602;23.398;2024-01-30T06:38:13;95573.28;;;37.81;64.62
58343;BME280;44150;42.602;23.398;2024-01-30T06:40:41;95576.00;;;37.81;64.87
58343;BME280;44150;42.602;23.398;2024-01-30T06:43:06;95568.69;;;37.81;64.96
58343;BME280;44150;42.602;23.398;2024-01-30T06:45:33;95568.16;;;37.84;64.57
58343;BME280;44150;42.602;23.398;2024-01-30T06:47:59;95572.47;;;37.80;64.72
58343;BME280;44150;42.602;23.398;2024-01-30T06:50:25;95574.09;;;37.81;65.03
58343;BME280;44150;42.602;23.398;2024-01-30T06:52:50;95585.72;;;37.82;65.40
58343;BME280;44150;42.602;23.398;2024-01-30T06:55:16;95580.31;;;37.82;65.06
58343;BME280;44150;42.602;23.398;2024-01-30T06:57:41;95581.13;;;37.82;65.19
58343;BME280;44150;42.602;23.398;2024-01-30T07:00:07;95587.34;;;37.83;65.10
58343;BME280;44150;42.602;23.398;2024-01-30T07:02:32;95583.84;;;37.82;65.07
58343;BME280;44150;42.602;23.398;2024-01-30T07:04:58;95571.94;;;37.83;65.32
58343;BME280;44150;42.602;23.398;2024-01-30T07:07:23;95577.34;;;37.83;65.51
58343;BME280;44150;42.602;23.398;2024-01-30T07:09:49;95574.09;;;37.81;65.47
58343;BME280;44150;42.602;23.398;2024-01-30T07:12:17;95574.91;;;37.82;65.75
58343;BME280;44150;42.602;23.398;2024-01-30T07:14:43;95583.59;;;37.84;64.60
58343;BME280;44150;42.602;23.398;2024-01-30T07:17:08;95579.50;;;37.81;65.01
58343;BME280;44150;42.602;23.398;2024-01-30T07:19:34;95580.88;;;37.84;64.87
58343;BME280;44150;42.602;23.398;2024-01-30T07:22:00;95578.44;;;37.87;64.88
58343;BME280;44150;42.602;23.398;2024-01-30T07:24:25;95575.19;;;37.85;65.51
58343;BME280;44150;42.602;23.398;2024-01-30T07:26:51;95575.47;;;37.79;65.68
58343;BME280;44150;42.602;23.398;2024-01-30T07:29:16;95583.59;;;37.79;65.21
58343;BME280;44150;42.602;23.398;2024-01-30T07:31:42;95580.63;;;37.75;65.14
58343;BME280;44150;42.602;23.398;2024-01-30T07:34:08;95572.78;;;37.79;64.85
58343;BME280;44150;42.602;23.398;2024-01-30T07:36:34;95573.59;;;37.79;65.25
58343;BME280;44150;42.602;23.398;2024-01-30T07:38:59;95573.59;;;37.79;65.10
58343;BME280;44150;42.602;23.398;2024-01-30T07:41:24;95573.59;;;37.79;65.35
58343;BME280;44150;42.602;23.398;2024-01-30T07:43:50;95568.69;;;37.81;64.75
58343;BME280;44150;42.602;23.398;2024-01-30T07:46:16;95570.31;;;37.82;64.90
58343;BME280;44150;42.602;23.398;2024-01-30T07:48:41;95575.72;;;37.82;65.35
58343;BME280;44150;42.602;23.398;2024-01-30T07:51:07;95568.19;;;37.79;64.07
58343;BME280;44150;42.602;23.398;2024-01-30T07:53:32;95576.81;;;37.81;64.20
58343;BME280;44150;42.602;23.398;2024-01-30T07:55:57;95577.09;;;37.80;65.34
58343;BME280;44150;42.602;23.398;2024-01-30T07:58:23;95573.03;;;37.82;64.75
58343;BME280;44150;42.602;23.398;2024-01-30T08:00:49;95573.03;;;37.82;64.88
58343;BME280;44150;42.602;23.398;2024-01-30T08:03:16;95570.84;;;37.84;65.24
58343;BME280;44150;42.602;23.398;2024-01-30T08:05:43;95570.31;;;37.82;64.74
58343;BME280;44150;42.602;23.398;2024-01-30T08:08:08;95574.09;;;37.81;64.80
58343;BME280;44150;42.602;23.398;2024-01-30T08:10:34;95564.66;;;37.84;64.99
58343;BME280;44150;42.602;23.398;2024-01-30T08:12:59;95560.34;;;37.83;64.48
58343;BME280;44150;42.602;23.398;2024-01-30T08:15:24;95563.84;;;37.83;64.71
58343;BME280;44150;42.602;23.398;2024-01-30T08:17:50;95568.16;;;37.84;65.03
58343;BME280;44150;42.602;23.398;2024-01-30T08:20:20;95569.25;;;37.83;64.69
58343;BME280;44150;42.602;23.398;2024-01-30T08:22:46;95569.25;;;37.88;65.07
58343;BME280;44150;42.602;23.398;2024-01-30T08:25:11;95570.59;;;37.86;65.05
58343;BME280;44150;42.602;23.398;2024-01-30T08:27:37;95574.41;;;37.80;65.03
58343;BME280;44150;42.602;23.398;2024-01-30T08:30:05;95566.56;;;37.78;65.11
58343;BME280;44150;42.602;23.398;2024-01-30T08:32:31;95570.84;;;37.84;64.91
58343;BME280;44150;42.602;23.398;2024-01-30T08:34:56;95570.84;;;37.84;65.02
58343;BME280;44150;42.602;23.398;2024-01-30T08:37:22;95568.69;;;37.81;64.62
58343;BME280;44150;42.602;23.398;2024-01-30T08:39:47;95582.75;;;37.83;64.03
58343;BME280;44150;42.602;23.398;2024-01-30T08:42:13;95570.06;;;37.79;64.07
58343;BME280;44150;42.602;23.398;2024-01-30T08:44:38;95578.97;;;37.84;64.68
58343;BME280;44150;42.602;23.398;2024-01-30T08:47:04;95579.50;;;37.81;63.69
58343;BME280;44150;42.602;23.398;2024-01-30T08:49:29;95581.41;;;37.81;64.04
58343;BME280;44150;42.602;23.398;2024-01-30T08:51:54;95580.31;;;37.82;63.26
58343;BME280;44150;42.602;23.398;2024-01-30T08:54:20;95578.97;;;37.84;64.32
58343;BME280;44150;42.602;23.398;2024-01-30T08:56:45;95580.31;;;37.82;64.05
58343;BME280;44150;42.602;23.398;2024-01-30T08:59:10;95582.75;;;37.83;63.23
58343;BME280;44150;42.602;23.398;2024-01-30T09:01:36;95579.50;;;37.81;63.54
58343;BME280;44150;42.602;23.398;2024-01-30T09:04:01;95590.06;;;37.83;63.17
58343;BME280;44150;42.602;23.398;2024-01-30T09:06:27;95584.91;;;37.81;62.80
58343;BME280;44150;42.602;23.398;2024-01-30T09:08:53;95585.72;;;37.82;62.39
58343;BME280;44150;42.602;23.398;2024-01-30T09:11:19;95580.31;;;37.82;61.75
58343;BME280;44150;42.602;23.398;2024-01-30T09:13:44;95583.59;;;37.84;61.19
58343;BME280;44150;42.602;23.398;2024-01-30T09:16:09;95579.78;;;37.85;62.16
58343;BME280;44150;42.602;23.398;2024-01-30T09:18:35;95567.63;;;37.82;61.45
58343;BME280;44150;42.602;23.398;2024-01-30T09:21:00;95567.38;;;37.84;61.20
58343;BME280;44150;42.602;23.398;2024-01-30T09:23:27;95575.19;;;37.85;60.46
58343;BME280;44150;42.602;23.398;2024-01-30T09:25:53;95570.59;;;37.86;59.68
58343;BME280;44150;42.602;23.398;2024-01-30T09:28:18;95577.38;;;37.78;60.35
58343;BME280;44150;42.602;23.398;2024-01-30T09:30:44;95570.06;;;37.79;60.31
58343;BME280;44150;42.602;23.398;2024-01-30T09:33:09;95573.84;;;37.78;60.10
58343;BME280;44150;42.602;23.398;2024-01-30T09:35:35;95566.56;;;37.78;60.82
58343;BME280;44150;42.602;23.398;2024-01-30T09:38:01;95576.28;;;37.79;60.13
58343;BME280;44150;42.602;23.398;2024-01-30T09:40:27;95576.28;;;37.79;60.47
58343;BME280;44150;42.602;23.398;2024-01-30T09:42:53;95556.78;;;35.51;27.73
58343;BME280;44150;42.602;23.398;2024-01-30T09:45:33;95563.03;;;35.20;40.72
58343;BME280;44150;42.602;23.398;2024-01-30T09:48:00;95564.75;;;35.68;44.91
58343;BME280;44150;42.602;23.398;2024-01-30T09:50:26;95560.97;;;36.21;47.21
58343;BME280;44150;42.602;23.398;2024-01-30T09:52:55;95561.13;;;36.62;49.18
58343;BME280;44150;42.602;23.398;2024-01-30T09:55:20;95558.97;;;36.74;50.93
58343;BME280;44150;42.602;23.398;2024-01-30T09:57:46;95560.34;;;36.81;52.94
58343;BME280;44150;42.602;23.398;2024-01-30T10:00:12;95560.34;;;36.87;54.61
58343;BME280;44150;42.602;23.398;2024-01-30T10:02:38;95549.81;;;36.90;55.49
58343;BME280;44150;42.602;23.398;2024-01-30T10:05:04;95547.41;;;37.29;46.81
58343;BME280;44150;42.602;23.398;2024-01-30T10:07:30;95545.53;;;37.19;51.72
58343;BME280;44150;42.602;23.398;2024-01-30T10:13:23;95549.53;;;35.99;41.16
58343;BME280;44150;42.602;23.398;2024-01-30T10:15:49;95550.13;;;37.49;45.04
58343;BME280;44150;42.602;23.398;2024-01-30T10:18:14;95543.94;;;37.54;49.18
58343;BME280;44150;42.602;23.398;2024-01-30T10:20:39;95554.19;;;37.57;53.04
58343;BME280;44150;42.602;23.398;2024-01-30T10:23:05;95550.91;;;37.60;55.21
58343;BME280;44150;42.602;23.398;2024-01-30T10:25:31;95548.22;;;37.60;56.68
58343;BME280;44150;42.602;23.398;2024-01-30T10:27:57;95550.34;;;37.78;57.96
58343;BME280;44150;42.602;23.398;2024-01-30T10:30:23;95550.09;;;37.75;59.24
58343;BME280;44150;42.602;23.398;2024-01-30T10:32:49;95553.84;;;37.79;59.99
58343;BME280;44150;42.602;23.398;2024-01-30T10:35:15;95547.34;;;37.85;60.11
58343;BME280;44150;42.602;23.398;2024-01-30T10:37:46;95551.09;;;37.94;60.53
58343;BME280;44150;42.602;23.398;2024-01-30T10:40:13;95550.59;;;37.97;61.76
58343;BME280;44150;42.602;23.398;2024-01-30T10:42:42;95549.50;;;37.88;62.09
58343;BME280;44150;42.602;23.398;2024-01-30T10:45:09;95550.03;;;37.85;62.07
58343;BME280;44150;42.602;23.398;2024-01-30T10:47:39;95541.66;;;37.86;62.49
58343;BME280;44150;42.602;23.398;2024-01-30T10:50:05;95540.03;;;37.85;63.30
58343;BME280;44150;42.602;23.398;2024-01-30T10:52:32;95537.06;;;37.87;62.91
58343;BME280;44150;42.602;23.398;2024-01-30T10:54:58;95539.78;;;37.87;63.71
58343;BME280;44150;42.602;23.398;2024-01-30T10:57:25;95526.00;;;37.88;63.68
58343;BME280;44150;42.602;23.398;2024-01-30T10:59:53;95521.94;;;37.86;64.31
58343;BME280;44150;42.602;23.398;2024-01-30T11:02:20;95526.00;;;37.88;64.36
58343;BME280;44150;42.602;23.398;2024-01-30T11:04:49;95524.38;;;37.87;55.72
58343;BME280;44150;42.602;23.398;2024-01-30T11:07:19;95522.47;;;37.88;56.69
58343;BME280;44150;42.602;23.398;2024-01-30T11:09:53;95522.19;;;37.89;58.42
58343;BME280;44150;42.602;23.398;2024-01-30T11:12:22;95524.63;;;37.91;59.26
58343;BME280;44150;42.602;23.398;2024-01-30T11:14:49;95517.31;;;37.91;59.07
58343;BME280;44150;42.602;23.398;2024-01-30T11:17:14;95521.91;;;37.91;60.03
58343;BME280;44150;42.602;23.398;2024-01-30T11:19:41;95513.56;;;37.87;60.48
58343;BME280;44150;42.602;23.398;2024-01-30T11:22:07;95511.09;;;37.91;60.20
58343;BME280;44150;42.602;23.398;2024-01-30T11:24:40;95516.78;;;37.89;60.89
58343;BME280;44150;42.602;23.398;2024-01-30T11:27:09;95519.47;;;37.89;60.89
58343;BME280;44150;42.602;23.398;2024-01-30T11:29:37;95514.63;;;37.91;61.01
58343;BME280;44150;42.602;23.398;2024-01-30T11:32:03;95514.63;;;37.91;60.91
58343;BME280;44150;42.602;23.398;2024-01-30T11:34:28;95511.63;;;37.93;61.32
58343;BME280;44150;42.602;23.398;2024-01-30T11:37:03;95509.47;;;37.90;61.25
58343;BME280;44150;42.602;23.398;2024-01-30T11:39:32;95509.47;;;37.90;61.81
58343;BME280;44150;42.602;23.398;2024-01-30T11:41:59;95506.22;;;37.93;61.65
58343;BME280;44150;42.602;23.398;2024-01-30T11:44:24;95510.84;;;37.92;61.48
58343;BME280;44150;42.602;23.398;2024-01-30T11:46:52;95504.06;;;37.90;62.01
58343;BME280;44150;42.602;23.398;2024-01-30T11:49:18;95510.84;;;37.92;61.88
58343;BME280;44150;42.602;23.398;2024-01-30T11:51:45;95505.44;;;37.92;61.99
58343;BME280;44150;42.602;23.398;2024-01-30T11:54:11;95505.44;;;37.92;62.23
58343;BME280;44150;42.602;23.398;2024-01-30T11:56:37;95506.50;;;37.91;62.35
58343;BME280;44150;42.602;23.398;2024-01-30T11:59:03;95493.50;;;37.93;62.51
58343;BME280;44150;42.602;23.398;2024-01-30T12:01:29;95490.28;;;37.91;62.27
58343;BME280;44150;42.602;23.398;2024-01-30T12:03:55;95493.00;;;37.91;62.82
58343;BME280;44150;42.602;23.398;2024-01-30T12:06:22;95488.09;;;37.93;62.38
58343;BME280;44150;42.602;23.398;2024-01-30T12:11:22;95480.81;;;37.94;62.80
58343;BME280;44150;42.602;23.398;2024-01-30T12:13:47;95481.09;;;37.92;62.66
58343;BME280;44150;42.602;23.398;2024-01-30T12:16:12;95478.91;;;37.94;62.97
58343;BME280;44150;42.602;23.398;2024-01-30T12:18:39;95470.28;;;37.92;63.02
58343;BME280;44150;42.602;23.398;2024-01-30T12:21:04;95469.19;;;37.93;62.92
58343;BME280;44150;42.602;23.398;2024-01-30T12:23:30;95465.41;;;37.94;63.31
58343;BME280;44150;42.602;23.398;2024-01-30T12:25:55;95465.66;;;37.93;63.34
58343;BME280;44150;42.602;23.398;2024-01-30T12:28:21;95461.88;;;37.94;63.41
58343;BME280;44150;42.602;23.398;2024-01-30T12:30:46;95453.25;;;37.92;63.26
58343;BME280;44150;42.602;23.398;2024-01-30T12:33:18;95450.56;;;37.92;63.22
58343;BME280;44150;42.602;23.398;2024-01-30T12:35:47;95447.28;;;37.95;63.39
58343;BME280;44150;42.602;23.398;2024-01-30T12:38:14;95433.53;;;37.91;63.61
58343;BME280;44150;42.602;23.398;2024-01-30T12:40:39;95439.75;;;37.92;63.75
58343;BME280;44150;42.602;23.398;2024-01-30T12:43:05;95439.75;;;37.92;64.05
58343;BME280;44150;42.602;23.398;2024-01-30T12:45:30;95445.97;;;37.92;63.60
58343;BME280;44150;42.602;23.398;2024-01-30T12:47:56;95445.16;;;37.92;63.46
58343;BME280;44150;42.602;23.398;2024-01-30T12:50:21;95443.53;;;37.91;63.94